Time;durP1;ratioP1;P1;durP2;ratioP2;P2;SDS_P1;SDS_P2;PMS_P1;PMS_P2;Temp;Humidity;BMP_temperature;BMP_pressure;BME280_temperature;BME280_humidity;BME280_pressure;Samples;Min_cycle;Max_cycle;Signal;HPM_P1;HPM_P2
2023/10/24 00:01:13;;;;;;;;;;;14.00;65.20;;;9.58;100.00;94746.78;5012206;28;19917;-48
2023/10/24 00:03:39;;;;;;;;;;;14.00;65.20;;;9.59;100.00;94753.69;5006075;28;20007;-48
2023/10/24 00:06:05;;;;;;;;;;;14.10;65.20;;;9.57;100.00;94748.66;5008892;28;19931;-51
2023/10/24 00:08:31;;;;;;;;;;;14.10;65.20;;;9.57;100.00;94746.00;4997046;28;20442;-52
2023/10/24 00:11:05;;;;;;;;;;;14.10;65.10;;;9.58;100.00;94736.16;5009374;28;19956;-49
2023/10/24 00:13:31;;;;;;;;;;;14.10;65.10;;;9.57;100.00;94715.97;5010619;28;19909;-50
2023/10/24 00:15:58;;;;;;;;;;;14.10;65.10;;;9.56;100.00;94712.53;5005801;28;19975;-49
2023/10/24 00:18:28;;;;;;;;;;;14.10;65.00;;;9.56;100.00;94711.69;5011687;28;20019;-50
2023/10/24 00:20:54;;;;;;;;;;;14.10;65.80;;;9.57;100.00;94710.66;5006190;28;19948;-50
2023/10/24 00:23:20;;;;;;;;;;;14.10;65.00;;;9.53;100.00;94723.72;5004992;28;19910;-52
2023/10/24 00:25:47;;;;;;;;;;;14.10;65.00;;;9.55;100.00;94734.06;5010075;28;19916;-48
2023/10/24 00:28:14;;;;;;;;;;;14.10;65.10;;;9.56;100.00;94732.97;5004290;28;19992;-50
2023/10/24 00:30:39;;;;;;;;;;;14.10;65.10;;;9.54;100.00;94725.28;5011378;28;20397;-53
2023/10/24 00:33:06;;;;;;;;;;;14.10;65.10;;;9.49;100.00;94712.84;5005936;28;19963;-50
2023/10/24 00:35:33;;;;;;;;;;;14.10;65.10;;;9.49;100.00;94720.00;5010172;28;19909;-50
2023/10/24 00:37:59;;;;;;;;;;;14.10;65.10;;;9.50;100.00;94718.94;5011443;28;20383;-49
2023/10/24 00:40:25;;;;;;;;;;;14.00;65.10;;;9.45;100.00;94713.66;4991473;28;20012;-49
2023/10/24 00:42:52;;;;;;;;;;;14.00;65.20;;;9.47;100.00;94688.41;4991595;28;19913;-50
2023/10/24 00:45:18;;;;;;;;;;;14.10;65.30;;;9.47;100.00;94671.66;4990606;28;20339;-52
2023/10/24 00:47:45;;;;;;;;;;;14.10;65.40;;;9.41;100.00;94670.13;4994584;28;19909;-50
2023/10/24 00:50:12;;;;;;;;;;;14.00;65.30;;;9.48;100.00;94687.31;4993400;28;20069;-48
2023/10/24 00:52:43;;;;;;;;;;;14.00;65.40;;;9.54;100.00;94693.38;4993287;28;19909;-48
2023/10/24 00:55:10;;;;;;;;;;;14.10;65.50;;;9.55;100.00;94697.63;4993696;28;19916;-49
2023/10/24 00:57:37;;;;;;;;;;;14.10;65.50;;;9.56;100.00;94679.81;4991421;28;19909;-48
2023/10/24 01:00:03;;;;;;;;;;;14.10;65.50;;;9.55;100.00;94659.63;4993012;28;19913;-48
2023/10/24 01:02:30;;;;;;;;;;;14.10;65.50;;;9.54;100.00;94647.41;4994544;28;20378;-48
2023/10/24 01:05:01;;;;;;;;;;;14.10;65.50;;;9.50;100.00;94653.28;4994791;28;19962;-48
2023/10/24 01:07:27;;;;;;;;;;;14.10;65.50;;;9.55;100.00;94662.28;4995159;28;19913;-50
2023/10/24 01:09:53;;;;;;;;;;;14.10;65.50;;;9.58;100.00;94669.69;4992409;28;19959;-52
2023/10/24 01:12:19;;;;;;;;;;;14.10;65.60;;;9.59;100.00;94673.94;4994918;28;20280;-50
2023/10/24 01:14:44;;;;;;;;;;;14.10;65.60;;;9.61;100.00;94683.22;4992585;28;20342;-53
2023/10/24 01:17:14;;;;;;;;;;;14.10;65.70;;;9.61;100.00;94680.56;4994787;28;19996;-51
2023/10/24 01:19:40;;;;;;;;;;;14.10;65.60;;;9.61;100.00;94685.09;4994137;28;20316;-53
2023/10/24 01:22:06;;;;;;;;;;;14.10;65.60;;;9.59;100.00;94672.09;4994006;28;19913;-49
2023/10/24 01:24:32;;;;;;;;;;;14.10;65.50;;;9.54;100.00;94671.34;4989342;28;19917;-48
2023/10/24 01:26:59;;;;;;;;;;;14.10;65.50;;;9.50;100.00;94647.19;4991614;28;19918;-54
2023/10/24 01:29:25;;;;;;;;;;;14.10;65.40;;;9.45;100.00;94647.22;4994500;28;19914;-50
2023/10/24 01:31:51;;;;;;;;;;;14.00;65.30;;;9.43;100.00;94646.69;4993553;28;20015;-51
2023/10/24 01:34:16;;;;;;;;;;;14.00;65.40;;;9.32;100.00;94642.53;4988524;28;20628;-52
2023/10/24 01:36:42;;;;;;;;;;;14.00;65.40;;;9.31;100.00;94635.63;4994557;28;19917;-45
2023/10/24 01:39:08;;;;;;;;;;;13.90;65.40;;;9.29;100.00;94624.50;4992983;28;20380;-48
2023/10/24 01:41:34;;;;;;;;;;;13.90;65.40;;;9.30;100.00;94612.78;4995052;28;20268;-47
2023/10/24 01:44:00;;;;;;;;;;;13.90;66.30;;;9.21;100.00;94599.31;4994356;28;19924;-46
2023/10/24 01:46:26;;;;;;;;;;;13.80;65.60;;;9.17;100.00;94608.91;4993891;28;19913;-45
2023/10/24 01:48:52;;;;;;;;;;;13.80;65.70;;;9.19;100.00;94604.13;4993897;28;19971;-46
2023/10/24 01:51:19;;;;;;;;;;;13.80;65.80;;;9.24;100.00;94615.50;4993353;28;19909;-45
2023/10/24 01:53:46;;;;;;;;;;;13.80;65.80;;;9.30;100.00;94608.25;4993982;28;19909;-49
2023/10/24 01:56:13;;;;;;;;;;;13.80;66.00;;;9.34;100.00;94606.66;4994438;28;19917;-47
2023/10/24 01:58:39;;;;;;;;;;;13.80;66.90;;;9.31;100.00;94607.22;4992682;28;20395;-48
2023/10/24 02:01:07;;;;;;;;;;;13.90;66.10;;;9.36;100.00;94609.81;4993966;28;19917;-52
2023/10/24 02:03:33;;;;;;;;;;;13.80;66.10;;;9.35;100.00;94613.53;4993294;28;20012;-48
2023/10/24 02:06:01;;;;;;;;;;;13.90;66.10;;;9.38;100.00;94615.66;4994117;28;20372;-48
2023/10/24 02:08:27;;;;;;;;;;;13.90;66.10;;;9.41;100.00;94616.97;4991762;28;19909;-48
2023/10/24 02:10:52;;;;;;;;;;;13.90;66.10;;;9.45;100.00;94616.09;4993692;28;20371;-48
2023/10/24 02:13:18;;;;;;;;;;;13.90;66.20;;;9.47;100.00;94613.97;4993551;28;19910;-50
2023/10/24 02:15:44;;;;;;;;;;;13.90;66.10;;;9.47;100.00;94613.19;4992935;28;19909;-48
2023/10/24 02:18:10;;;;;;;;;;;13.90;66.10;;;9.42;100.00;94606.03;4993786;28;19952;-49
2023/10/24 02:20:38;;;;;;;;;;;13.90;66.00;;;9.44;100.00;94622.50;4991351;28;19914;-48
2023/10/24 02:23:04;;;;;;;;;;;13.90;66.00;;;9.43;100.00;94614.78;4993447;28;19914;-50
2023/10/24 02:25:35;;;;;;;;;;;14.00;66.10;;;9.42;100.00;94607.91;4993615;28;19909;-48
2023/10/24 02:28:01;;;;;;;;;;;14.00;66.00;;;9.43;100.00;94610.28;4992364;28;20008;-48
2023/10/24 02:30:27;;;;;;;;;;;13.90;66.00;;;9.40;100.00;94600.22;4993634;28;20007;-47
2023/10/24 02:33:00;;;;;;;;;;;13.90;65.90;;;9.37;100.00;94597.31;4992543;28;19916;-47
2023/10/24 02:35:27;;;;;;;;;;;13.90;65.90;;;9.31;100.00;94595.75;4993864;28;19909;-48
2023/10/24 02:37:52;;;;;;;;;;;13.90;65.90;;;9.30;100.00;94597.63;4993403;28;19916;-48
2023/10/24 02:40:18;;;;;;;;;;;13.90;65.90;;;9.30;100.00;94597.63;4992105;28;20004;-48
2023/10/24 02:42:44;;;;;;;;;;;13.90;65.90;;;9.29;100.00;94597.94;4993353;28;19963;-49
2023/10/24 02:45:10;;;;;;;;;;;13.90;65.90;;;9.29;100.00;94593.41;4991940;28;19909;-49
2023/10/24 02:47:36;;;;;;;;;;;13.90;65.90;;;9.28;100.00;94602.47;4993125;28;20061;-48
2023/10/24 02:50:02;;;;;;;;;;;13.90;66.00;;;9.23;100.00;94608.59;4992484;28;20446;-48
2023/10/24 02:52:29;;;;;;;;;;;13.80;65.90;;;9.24;100.00;94610.19;4988655;28;19913;-49
2023/10/24 02:54:56;;;;;;;;;;;13.80;65.90;;;9.18;100.00;94616.63;4992650;28;19917;-48
2023/10/24 02:57:22;;;;;;;;;;;13.80;66.00;;;9.15;100.00;94595.09;4991965;28;19964;-48
2023/10/24 02:59:49;;;;;;;;;;;13.80;66.00;;;9.17;100.00;94599.06;5000500;28;20362;-50
2023/10/24 03:02:15;;;;;;;;;;;13.80;66.00;;;9.11;100.00;94597.53;4993120;28;20008;-48
2023/10/24 03:04:40;;;;;;;;;;;13.70;66.00;;;9.06;100.00;94575.53;4991939;28;20052;-48
2023/10/24 03:07:06;;;;;;;;;;;13.70;66.10;;;9.09;100.00;94575.78;4992878;28;19910;-47
2023/10/24 03:09:33;;;;;;;;;;;13.70;66.10;;;9.14;100.00;94570.41;4996781;28;19909;-48
2023/10/24 03:11:59;;;;;;;;;;;13.70;66.30;;;9.16;100.00;94572.81;5007359;28;20379;-49
2023/10/24 03:14:25;;;;;;;;;;;13.60;66.30;;;9.15;100.00;94564.03;5011526;28;19963;-49
2023/10/24 03:16:51;;;;;;;;;;;13.70;66.40;;;9.12;100.00;94555.81;5008593;28;19909;-48
2023/10/24 03:19:16;;;;;;;;;;;13.70;66.40;;;9.18;100.00;94550.19;4995682;28;19938;-50
2023/10/24 03:21:42;;;;;;;;;;;13.70;66.60;;;9.24;100.00;94543.75;5007477;28;19921;-48
2023/10/24 03:24:09;;;;;;;;;;;13.70;66.70;;;9.31;100.00;94542.63;5011590;28;19909;-48
2023/10/24 03:26:34;;;;;;;;;;;13.70;66.80;;;9.39;100.00;94548.13;5010409;28;20008;-48
2023/10/24 03:29:00;;;;;;;;;;;13.80;67.00;;;9.46;100.00;94542.47;5009607;28;19909;-48
2023/10/24 03:31:26;;;;;;;;;;;13.80;67.00;;;9.48;100.00;94549.09;5011938;28;19909;-50
2023/10/24 03:33:52;;;;;;;;;;;13.90;67.10;;;9.46;100.00;94551.25;5008157;28;19909;-52
2023/10/24 03:36:17;;;;;;;;;;;13.90;67.00;;;9.51;100.00;94545.06;5027077;28;20353;-48
2023/10/24 03:38:43;;;;;;;;;;;13.90;67.00;;;9.55;100.00;94553.28;5007659;28;19963;-51
2023/10/24 03:41:09;;;;;;;;;;;13.90;66.90;;;9.59;100.00;94560.41;5008216;28;19913;-52
2023/10/24 03:43:35;;;;;;;;;;;14.00;66.90;;;9.62;100.00;94572.31;5011610;28;20477;-48
2023/10/24 03:46:07;;;;;;;;;;;14.00;66.90;;;9.64;100.00;94559.56;5006492;28;19909;-50
2023/10/24 03:48:33;;;;;;;;;;;14.00;66.80;;;9.65;100.00;94555.81;5011029;28;19909;-55
2023/10/24 03:51:00;;;;;;;;;;;14.10;66.70;;;9.64;100.00;94546.25;5000954;28;19909;-53
2023/10/24 03:53:27;;;;;;;;;;;14.10;66.70;;;9.58;100.00;94539.41;5003900;28;19913;-52
2023/10/24 03:55:58;;;;;;;;;;;14.10;66.60;;;9.57;100.00;94535.97;5011668;28;20367;-50
2023/10/24 03:58:25;;;;;;;;;;;14.10;66.60;;;9.60;100.00;94538.06;5006831;28;19915;-51
2023/10/24 04:00:51;;;;;;;;;;;14.20;66.60;;;9.60;100.00;94542.59;5010554;28;19920;-50
2023/10/24 04:03:17;;;;;;;;;;;14.10;66.60;;;9.63;100.00;94560.63;5007051;28;19913;-49
2023/10/24 04:05:43;;;;;;;;;;;14.10;66.50;;;9.62;100.00;94556.38;5011627;28;19915;-48
2023/10/24 04:08:09;;;;;;;;;;;14.10;66.50;;;9.60;100.00;94563.88;5011620;28;20256;-52
2023/10/24 04:10:35;;;;;;;;;;;14.10;66.50;;;9.59;100.00;94571.06;5004757;28;19913;-50
2023/10/24 04:13:01;;;;;;;;;;;14.10;66.50;;;9.54;100.00;94565.00;5010588;28;19915;-48
2023/10/24 04:15:27;;;;;;;;;;;14.10;66.40;;;9.52;100.00;94562.59;5006803;28;20445;-49
2023/10/24 04:17:54;;;;;;;;;;;14.10;66.30;;;9.48;100.00;94558.94;5011871;28;20312;-51
2023/10/24 04:20:20;;;;;;;;;;;14.10;66.40;;;9.44;100.00;94557.91;5011885;28;19940;-51
2023/10/24 04:22:49;;;;;;;;;;;14.10;66.30;;;9.41;100.00;94558.47;5011309;28;19943;-52
2023/10/24 04:25:15;;;;;;;;;;;14.00;66.30;;;9.38;100.00;94556.38;5014906;28;19916;-51
2023/10/24 04:27:41;;;;;;;;;;;14.00;66.30;;;9.36;100.00;94556.66;5011836;28;19909;-50
2023/10/24 04:30:09;;;;;;;;;;;14.00;66.30;;;9.36;100.00;94561.19;5013976;28;19916;-52
2023/10/24 04:32:35;;;;;;;;;;;14.00;66.30;;;9.32;100.00;94566.28;5014218;28;20367;-49
2023/10/24 04:35:01;;;;;;;;;;;14.00;66.40;;;9.26;100.00;94570.84;5014389;28;19916;-49
2023/10/24 04:37:26;;;;;;;;;;;14.00;66.40;;;9.25;100.00;94573.78;5014101;28;19919;-54
2023/10/24 04:39:54;;;;;;;;;;;13.90;66.30;;;9.23;100.00;94568.72;5008553;28;19909;-48
2023/10/24 04:42:21;;;;;;;;;;;13.90;66.30;;;9.26;100.00;94575.34;5030826;28;19931;-54
2023/10/24 04:44:47;;;;;;;;;;;13.90;66.40;;;9.25;100.00;94566.59;5010984;28;19913;-54
2023/10/24 04:47:12;;;;;;;;;;;13.90;66.40;;;9.18;100.00;94552.84;4994853;28;19917;-54
2023/10/24 04:49:38;;;;;;;;;;;13.90;66.40;;;9.16;100.00;94549.69;4994850;28;19925;-54
2023/10/24 04:52:04;;;;;;;;;;;13.90;66.30;;;9.19;100.00;94543.00;5004622;28;19958;-50
2023/10/24 04:54:30;;;;;;;;;;;13.90;66.40;;;9.16;100.00;94539.06;5013373;28;19913;-53
2023/10/24 04:56:58;;;;;;;;;;;13.90;66.30;;;9.17;100.00;94534.53;5011107;28;19934;-54
2023/10/24 04:59:24;;;;;;;;;;;13.80;66.30;;;9.09;100.00;94529.81;5014597;28;19952;-56
2023/10/24 05:01:49;;;;;;;;;;;13.80;66.30;;;9.09;100.00;94535.94;5014882;28;19952;-52
2023/10/24 05:04:15;;;;;;;;;;;13.80;66.30;;;9.06;100.00;94533.03;5010706;28;20342;-55
2023/10/24 05:06:41;;;;;;;;;;;13.80;66.40;;;9.07;100.00;94510.72;5014650;28;20390;-54
2023/10/24 05:09:07;;;;;;;;;;;13.80;66.40;;;9.05;100.00;94492.38;5010357;28;19913;-55
2023/10/24 05:11:33;;;;;;;;;;;13.80;66.40;;;9.02;100.00;94485.81;5014271;28;19916;-57
2023/10/24 05:13:59;;;;;;;;;;;13.70;66.30;;;9.01;100.00;94481.53;5014101;28;20299;-54
2023/10/24 05:16:25;;;;;;;;;;;13.70;66.30;;;8.97;100.00;94480.53;5009212;28;19909;-55
2023/10/24 05:18:50;;;;;;;;;;;13.70;66.30;;;8.95;100.00;94487.97;5013806;28;20385;-52
2023/10/24 05:21:16;;;;;;;;;;;13.60;66.30;;;8.90;100.00;94501.31;5010335;28;20330;-53
2023/10/24 05:23:42;;;;;;;;;;;13.60;66.30;;;8.88;100.00;94506.09;5013733;28;19909;-51
2023/10/24 05:26:08;;;;;;;;;;;13.60;66.40;;;8.83;100.00;94490.22;5014491;28;19916;-51
2023/10/24 05:28:34;;;;;;;;;;;13.60;66.40;;;8.80;100.00;94499.53;5009320;28;19909;-52
2023/10/24 05:31:08;;;;;;;;;;;13.50;66.50;;;8.79;100.00;94499.81;5000194;28;19913;-52
2023/10/24 05:33:38;;;;;;;;;;;13.40;66.40;;;8.76;100.00;94497.72;4994017;28;20441;-55
2023/10/24 05:36:05;;;;;;;;;;;13.50;66.50;;;8.72;100.00;94502.00;5005533;28;19913;-51
2023/10/24 05:38:32;;;;;;;;;;;13.40;66.40;;;8.69;100.00;94492.72;4989935;28;19986;-52
2023/10/24 05:41:00;;;;;;;;;;;13.40;66.50;;;8.64;100.00;94497.28;4999315;28;20482;-54
2023/10/24 05:43:26;;;;;;;;;;;13.40;66.60;;;8.63;100.00;94498.38;4994693;28;19913;-52
2023/10/24 05:45:52;;;;;;;;;;;13.30;66.60;;;8.62;100.00;94496.75;4996683;28;19916;-47
2023/10/24 05:48:18;;;;;;;;;;;13.30;66.60;;;8.61;100.00;94498.63;4994962;28;19935;-49
2023/10/24 05:50:44;;;;;;;;;;;13.20;66.60;;;8.58;100.00;94502.63;4992068;28;19961;-51
2023/10/24 05:53:10;;;;;;;;;;;13.30;66.70;;;8.56;100.00;94506.66;5008612;28;20435;-52
2023/10/24 05:55:36;;;;;;;;;;;13.30;66.80;;;8.56;100.00;94506.66;5000832;28;20012;-52
2023/10/24 05:58:02;;;;;;;;;;;13.30;66.80;;;8.56;100.00;94509.31;5006742;28;20268;-48
2023/10/24 06:00:28;;;;;;;;;;;13.30;66.80;;;8.57;100.00;94518.84;4992768;28;19917;-53
2023/10/24 06:02:54;;;;;;;;;;;13.30;66.80;;;8.58;100.00;94515.09;5004357;28;19921;-53
2023/10/24 06:05:20;;;;;;;;;;;13.30;66.80;;;8.55;100.00;94519.13;4998759;28;20241;-52
2023/10/24 06:07:46;;;;;;;;;;;13.30;66.80;;;8.55;100.00;94519.13;5002461;28;19996;-53
2023/10/24 06:10:11;;;;;;;;;;;13.30;66.80;;;8.58;100.00;94526.50;4938570;28;30960;-47
2023/10/24 06:12:37;;;;;;;;;;;13.30;66.80;;;8.61;100.00;94517.22;4995740;28;19921;-53
2023/10/24 06:15:05;;;;;;;;;;;13.30;66.90;;;8.63;100.00;94523.03;4993756;28;19931;-50
2023/10/24 06:17:31;;;;;;;;;;;13.30;66.90;;;8.64;100.00;94513.22;4998504;28;20440;-53
2023/10/24 06:19:56;;;;;;;;;;;13.30;66.90;;;8.63;100.00;94512.44;4988761;28;19914;-49
2023/10/24 06:22:23;;;;;;;;;;;13.40;66.90;;;8.65;100.00;94522.75;4987197;28;20383;-49
2023/10/24 06:24:49;;;;;;;;;;;13.30;66.90;;;8.65;100.00;94523.56;5003233;28;19909;-49
2023/10/24 06:27:16;;;;;;;;;;;13.40;66.90;;;8.65;100.00;94523.56;5002133;28;19909;-53
2023/10/24 06:29:42;;;;;;;;;;;13.40;67.00;;;8.66;100.00;94527.00;4988435;28;20383;-51
2023/10/24 06:32:08;;;;;;;;;;;13.40;67.00;;;8.70;100.00;94526.16;4994120;28;20347;-48
2023/10/24 06:34:34;;;;;;;;;;;13.40;67.00;;;8.69;100.00;94516.63;5003836;28;20370;-52
2023/10/24 06:37:00;;;;;;;;;;;13.40;67.00;;;8.71;100.00;94516.34;4991772;28;19909;-54
2023/10/24 06:39:25;;;;;;;;;;;13.40;67.00;;;8.74;100.00;94526.41;4993319;28;20287;-50
2023/10/24 06:41:51;;;;;;;;;;;13.40;66.90;;;8.76;100.00;94530.38;5003176;28;19991;-54
2023/10/24 06:44:17;;;;;;;;;;;13.50;67.10;;;8.77;100.00;94520.53;4996291;28;19920;-52
2023/10/24 06:46:43;;;;;;;;;;;13.50;67.00;;;8.76;100.00;94503.81;4998624;28;20092;-49
2023/10/24 06:49:09;;;;;;;;;;;13.50;67.00;;;8.69;100.00;94502.56;4993727;28;19961;-53
2023/10/24 06:51:35;;;;;;;;;;;13.50;67.00;;;8.64;100.00;94500.72;5006182;28;19951;-49
2023/10/24 06:54:00;;;;;;;;;;;13.50;67.00;;;8.65;100.00;94504.16;5011857;28;19914;-49
2023/10/24 06:56:26;;;;;;;;;;;13.50;67.00;;;8.77;100.00;94502.75;5001137;28;19924;-49
2023/10/24 06:58:52;;;;;;;;;;;13.50;67.00;;;8.77;100.00;94509.91;4991432;28;19909;-50
2023/10/24 07:01:18;;;;;;;;;;;13.60;67.20;;;8.84;100.00;94530.81;5007721;28;20017;-55
2023/10/24 07:03:44;;;;;;;;;;;13.60;67.20;;;8.89;100.00;94541.41;5005831;28;19908;-51
2023/10/24 07:06:10;;;;;;;;;;;13.60;67.20;;;8.92;100.00;94524.94;4994685;28;19913;-54
2023/10/24 07:08:36;;;;;;;;;;;13.60;67.20;;;8.89;100.00;94536.91;4997518;28;19952;-51
2023/10/24 07:11:02;;;;;;;;;;;13.60;68.00;;;8.99;100.00;94528.84;4999098;28;19957;-53
2023/10/24 07:13:29;;;;;;;;;;;13.70;67.40;;;9.09;100.00;94525.31;5005118;28;19963;-49
2023/10/24 07:15:54;;;;;;;;;;;13.70;67.40;;;9.11;100.00;94533.78;5006426;28;19909;-49
2023/10/24 07:18:20;;;;;;;;;;;13.80;67.50;;;9.12;100.00;94537.22;5012595;28;19955;-49
2023/10/24 07:20:47;;;;;;;;;;;13.80;67.40;;;9.19;100.00;94524.41;5005996;28;20007;-53
2023/10/24 07:23:12;;;;;;;;;;;13.90;67.40;;;9.25;100.00;94521.44;5011155;28;19925;-49
2023/10/24 07:25:38;;;;;;;;;;;13.90;67.40;;;9.30;100.00;94525.88;5012098;28;19909;-52
2023/10/24 07:28:05;;;;;;;;;;;14.00;68.20;;;9.34;100.00;94526.91;5005237;28;19908;-52
2023/10/24 07:30:31;;;;;;;;;;;14.00;67.30;;;9.41;100.00;94526.59;5012001;28;20335;-50
2023/10/24 07:32:58;;;;;;;;;;;14.10;67.40;;;9.43;100.00;94527.88;5007790;28;19967;-53
2023/10/24 07:35:24;;;;;;;;;;;14.10;67.40;;;9.42;100.00;94530.81;5006277;28;19909;-50
2023/10/24 07:37:50;;;;;;;;;;;14.10;67.40;;;9.40;100.00;94544.41;5012462;28;19936;-50
2023/10/24 07:40:17;;;;;;;;;;;14.10;67.30;;;9.43;100.00;94535.88;5009754;28;19909;-49
2023/10/24 07:42:43;;;;;;;;;;;14.10;68.00;;;9.43;100.00;94535.88;5012449;28;19948;-51
2023/10/24 07:45:11;;;;;;;;;;;14.10;67.30;;;9.44;100.00;94540.09;5007984;28;19975;-49
2023/10/24 07:47:36;;;;;;;;;;;14.10;67.30;;;9.41;100.00;94553.16;5002765;28;19946;-51
2023/10/24 07:50:03;;;;;;;;;;;14.10;67.30;;;9.40;100.00;94544.41;5013375;28;19917;-52
2023/10/24 07:52:29;;;;;;;;;;;14.10;67.30;;;9.47;100.00;94544.84;5010062;28;20386;-51
2023/10/24 07:54:55;;;;;;;;;;;14.10;67.30;;;9.44;100.00;94541.97;5013281;28;19909;-50
2023/10/24 07:57:21;;;;;;;;;;;14.10;67.30;;;9.50;100.00;94548.81;5009745;28;19916;-50
2023/10/24 07:59:47;;;;;;;;;;;14.10;67.40;;;9.51;100.00;94553.03;5013493;28;19967;-48
2023/10/24 08:02:12;;;;;;;;;;;14.20;67.40;;;9.57;100.00;94559.91;5013802;28;19921;-48
2023/10/24 08:04:38;;;;;;;;;;;14.20;67.50;;;9.60;100.00;94566.53;5010577;28;19909;-49
2023/10/24 08:07:04;;;;;;;;;;;14.20;67.50;;;9.60;100.00;94563.88;5013529;28;19909;-53
2023/10/24 08:09:30;;;;;;;;;;;14.20;67.40;;;9.64;100.00;94565.66;5009504;28;19909;-51
2023/10/24 08:11:56;;;;;;;;;;;14.20;67.40;;;9.65;100.00;94567.25;5013595;28;19909;-49
2023/10/24 08:14:22;;;;;;;;;;;14.20;67.40;;;9.66;100.00;94568.84;5010361;28;20390;-49
2023/10/24 08:16:48;;;;;;;;;;;14.30;67.50;;;9.66;100.00;94562.72;5009168;28;19999;-51
2023/10/24 08:19:14;;;;;;;;;;;14.30;67.40;;;9.67;100.00;94562.44;5011847;28;19909;-54
2023/10/24 08:21:39;;;;;;;;;;;14.30;67.40;;;9.67;100.00;94557.13;5011636;28;19913;-50
2023/10/24 08:24:06;;;;;;;;;;;14.30;67.30;;;9.74;100.00;94564.75;5013079;28;19924;-49
2023/10/24 08:26:31;;;;;;;;;;;14.30;67.40;;;9.78;100.00;94560.47;5012042;28;19913;-50
2023/10/24 08:28:57;;;;;;;;;;;14.40;67.50;;;9.81;100.00;94559.91;5010090;28;20362;-51
2023/10/24 08:31:23;;;;;;;;;;;14.40;67.50;;;9.85;100.00;94562.78;5013421;28;19955;-51
2023/10/24 08:33:49;;;;;;;;;;;14.40;67.50;;;9.86;100.00;94567.81;5008674;28;19909;-52
2023/10/24 08:36:14;;;;;;;;;;;14.50;67.60;;;9.90;100.00;94563.53;5002406;28;19913;-51
2023/10/24 08:38:40;;;;;;;;;;;14.50;67.50;;;9.89;100.00;94563.78;4989268;28;19909;-53
2023/10/24 08:41:06;;;;;;;;;;;14.60;67.50;;;9.90;100.00;94563.53;5000832;28;20291;-51
2023/10/24 08:43:33;;;;;;;;;;;14.60;67.50;;;9.94;100.00;94575.16;5002765;28;19913;-51
2023/10/24 08:46:01;;;;;;;;;;;14.60;67.50;;;9.92;100.00;94573.88;4998034;28;19916;-53
2023/10/24 08:48:27;;;;;;;;;;;14.60;67.50;;;9.92;100.00;94576.53;5008334;28;19909;-48
2023/10/24 08:50:53;;;;;;;;;;;14.60;67.40;;;10.00;100.00;94580.41;4988768;28;19921;-49
2023/10/24 08:53:19;;;;;;;;;;;14.60;67.40;;;10.06;100.00;94577.44;4995524;28;19916;-49
2023/10/24 08:55:53;;;;;;;;;;;14.60;67.50;;;10.06;100.00;94572.09;5006451;28;19913;-46
2023/10/24 08:58:20;;;;;;;;;;;14.60;67.60;;;10.02;100.00;94575.59;5002096;28;19909;-52
2023/10/24 09:00:47;;;;;;;;;;;14.60;67.50;;;10.05;100.00;94572.38;5001291;28;20008;-46
2023/10/24 09:03:17;;;;;;;;;;;14.70;67.60;;;10.08;100.00;94579.78;4999869;28;20025;-52
2023/10/24 09:05:48;;;;;;;;;;;14.70;67.60;;;10.12;100.00;94581.59;5003964;28;19909;-48
2023/10/24 09:08:16;;;;;;;;;;;14.70;67.60;;;10.16;100.00;94585.28;5006533;28;20355;-46
2023/10/24 09:10:42;;;;;;;;;;;14.70;67.70;;;10.18;100.00;94592.97;5006921;28;19916;-46
2023/10/24 09:13:08;;;;;;;;;;;14.70;67.70;;;10.19;100.00;94591.91;5003664;28;19909;-50
2023/10/24 09:15:36;;;;;;;;;;;14.80;67.70;;;10.20;100.00;94593.47;5003332;28;19932;-48
2023/10/24 09:18:04;;;;;;;;;;;14.80;67.70;;;10.24;100.00;94589.16;5008771;28;19951;-52
2023/10/24 09:20:32;;;;;;;;;;;14.80;67.60;;;10.24;100.00;94594.47;5004757;28;19920;-50
2023/10/24 09:23:07;;;;;;;;;;;14.80;67.60;;;10.29;100.00;94588.34;4991918;28;19916;-52
2023/10/24 09:25:33;;;;;;;;;;;14.90;67.70;;;10.34;100.00;94589.06;5007494;28;19966;-50
2023/10/24 09:28:17;;;;;;;;;;;15.00;67.70;;;10.37;100.00;94593.00;5006480;28;20012;-53
2023/10/24 09:30:44;;;;;;;;;;;15.00;67.70;;;10.36;100.00;94589.56;5014217;28;19909;-49
2023/10/24 09:33:10;;;;;;;;;;;15.00;67.70;;;10.41;100.00;94599.38;5008460;28;19917;-52
2023/10/24 09:35:37;;;;;;;;;;;15.00;67.70;;;10.42;100.00;94592.94;5016868;28;19909;-53
2023/10/24 09:38:07;;;;;;;;;;;15.00;67.70;;;10.46;100.00;94588.63;5017029;28;20007;-53
2023/10/24 09:40:39;;;;;;;;;;;15.00;67.70;;;10.48;100.00;94583.03;5012200;28;19959;-54
2023/10/24 09:43:19;;;;;;;;;;;15.00;67.70;;;10.53;100.00;94581.09;5016233;28;19940;-51
2023/10/24 09:45:45;;;;;;;;;;;15.00;67.80;;;10.56;100.00;94580.53;5009632;28;19913;-53
2023/10/24 09:48:16;;;;;;;;;;;15.10;67.80;;;10.59;100.00;94573.81;5027865;28;19909;-53
2023/10/24 09:50:43;;;;;;;;;;;15.10;67.80;;;10.60;100.00;94578.06;5013360;28;19916;-54
2023/10/24 09:53:11;;;;;;;;;;;15.10;67.80;;;10.55;100.00;94578.91;5030185;28;19921;-54
2023/10/24 09:55:48;;;;;;;;;;;15.10;67.80;;;10.59;100.00;94579.13;5016232;28;19975;-49
2023/10/24 09:58:19;;;;;;;;;;;15.20;67.90;;;10.62;100.00;94584.69;5011216;28;19932;-49
2023/10/24 10:00:47;;;;;;;;;;;15.10;67.90;;;10.65;100.00;94588.63;5015723;28;19917;-52
2023/10/24 10:03:14;;;;;;;;;;;15.20;67.90;;;10.69;100.00;94578.22;5010765;28;19971;-51
2023/10/24 10:05:41;;;;;;;;;;;15.20;68.00;;;10.68;100.00;94590.72;5015608;28;20024;-49
2023/10/24 10:08:08;;;;;;;;;;;15.20;67.90;;;10.72;100.00;94574.94;5014371;28;19913;-52
2023/10/24 10:10:37;;;;;;;;;;;15.30;67.90;;;10.72;100.00;94570.44;4993612;28;19917;-52
2023/10/24 10:13:09;;;;;;;;;;;15.40;68.00;;;10.79;100.00;94573.50;4995568;28;19971;-52
2023/10/24 10:16:06;;;;;;;;;;;15.40;67.90;;;10.85;100.00;94568.91;4993800;28;19948;-52
2023/10/24 10:19:09;;;;;;;;;;;15.50;67.80;;;10.94;100.00;94563.72;4994590;28;19909;-48
2023/10/24 10:22:04;;;;;;;;;;;15.50;67.80;;;11.04;100.00;94555.53;4988897;28;19976;-52
2023/10/24 10:25:08;;;;;;;;;;;15.60;67.90;;;11.15;100.00;94542.81;4992958;28;19917;-54
2023/10/24 10:28:11;;;;;;;;;;;15.80;67.80;;;11.23;100.00;94561.59;4990083;28;19910;-53
2023/10/24 10:31:02;;;;;;;;;;;15.90;67.80;;;11.26;100.00;94576.22;4989641;28;20022;-51
2023/10/24 10:33:29;;;;;;;;;;;16.00;67.60;;;11.31;100.00;94568.13;4986992;28;20340;-53
2023/10/24 10:36:02;;;;;;;;;;;16.10;67.50;;;11.35;100.00;94561.16;4994369;28;19915;-55
2023/10/24 10:38:45;;;;;;;;;;;16.20;67.50;;;11.33;100.00;94557.97;4994732;28;20446;-54
2023/10/24 10:41:26;;;;;;;;;;;16.10;67.30;;;11.31;100.00;94549.47;4994866;28;19914;-55
2023/10/24 10:44:01;;;;;;;;;;;16.20;67.30;;;11.35;100.00;94545.16;4990500;28;19937;-48
2023/10/24 10:46:33;;;;;;;;;;;16.20;67.20;;;11.42;100.00;94547.44;4989853;28;20332;-52
2023/10/24 10:49:04;;;;;;;;;;;16.30;67.10;;;11.48;100.00;94547.03;4993183;28;19921;-54
2023/10/24 10:51:32;;;;;;;;;;;16.40;67.10;;;11.52;100.00;94539.22;5002216;28;19916;-54
2023/10/24 10:54:26;;;;;;;;;;;16.40;67.10;;;11.63;100.00;94537.19;4991675;28;19916;-53
2023/10/24 10:56:55;;;;;;;;;;;16.50;67.00;;;11.70;100.00;94525.00;4992363;28;20043;-55
2023/10/24 10:59:33;;;;;;;;;;;16.60;67.00;;;11.77;100.00;94522.72;5012218;28;19909;-55
2023/10/24 11:02:39;;;;;;;;;;;16.70;67.10;;;11.84;100.00;94513.53;5009865;28;19920;-55
2023/10/24 11:05:35;;;;;;;;;;;16.70;66.90;;;11.89;100.00;94500.13;5002916;28;20003;-50
2023/10/24 11:08:03;;;;;;;;;;;16.80;66.90;;;11.92;100.00;94480.88;5012537;28;20031;-53
2023/10/24 11:10:49;;;;;;;;;;;16.90;66.90;;;12.04;100.00;94473.91;5008597;28;19909;-51
2023/10/24 11:13:47;;;;;;;;;;;17.00;66.80;;;12.10;100.00;94477.28;5011710;28;19909;-50
2023/10/24 11:16:15;;;;;;;;;;;17.10;66.60;;;12.06;100.00;94483.50;5005839;28;19916;-56
2023/10/24 11:18:41;;;;;;;;;;;17.20;66.50;;;11.99;100.00;94495.38;5011549;28;19952;-51